Time;durP1;ratioP1;P1;durP2;ratioP2;P2;SDS_P1;SDS_P2;PMS_P1;PMS_P2;Temp;Humidity;BMP_temperature;BMP_pressure;BME280_temperature;BME280_humidity;BME280_pressure;Samples;Min_cycle;Max_cycle;Signal;HPM_P1;HPM_P2
2021/03/03 00:02:18;;;;;;;31.33;18.77;;;;;;;10.15;52.01;102817.50;4935826;28;114141;-69
2021/03/03 00:04:45;;;;;;;27.92;17.02;;;;;;;10.14;51.96;102823.72;4934480;28;114152;-70
2021/03/03 00:07:14;;;;;;;31.88;18.42;;;;;;;10.10;51.87;102825.53;4936253;28;123135;-70
2021/03/03 00:09:41;;;;;;;30.92;18.15;;;;;;;10.07;51.96;102825.53;4948936;28;123072;-70
2021/03/03 00:12:09;;;;;;;31.02;17.40;;;;;;;10.03;51.97;102833.53;4944724;28;114424;-70
2021/03/03 00:14:36;;;;;;;34.45;18.00;;;;;;;9.97;51.72;102828.31;4953972;28;117179;-69
2021/03/03 00:17:03;;;;;;;29.35;16.98;;;;;;;9.89;52.02;102831.94;4933890;28;122939;-69
2021/03/03 00:19:30;;;;;;;31.85;18.88;;;;;;;9.82;51.91;102830.22;4938380;28;123380;-70
2021/03/03 00:21:57;;;;;;;35.08;18.25;;;;;;;9.77;52.02;102831.16;4936592;28;114359;-69
2021/03/03 00:24:24;;;;;;;34.08;17.17;;;;;;;9.70;51.92;102827.69;4938753;28;114424;-68
2021/03/03 00:26:50;;;;;;;30.00;17.25;;;;;;;9.66;51.95;102833.91;4938936;28;123230;-70
2021/03/03 00:29:17;;;;;;;32.03;17.40;;;;;;;9.61;52.11;102835.72;4953827;28;123563;-69
2021/03/03 00:31:44;;;;;;;31.02;16.83;;;;;;;9.57;52.03;102828.69;4936733;28;115330;-68
2021/03/03 00:34:11;;;;;;;31.17;17.17;;;;;;;9.51;52.31;102830.53;4937387;28;115442;-68
2021/03/03 00:36:37;;;;;;;30.70;16.42;;;;;;;9.46;52.51;102836.75;4935320;28;124042;-68
2021/03/03 00:39:05;;;;;;;34.08;17.48;;;;;;;9.42;52.60;102830.59;4934161;28;123121;-69
2021/03/03 00:41:31;;;;;;;32.05;17.90;;;;;;;9.39;52.39;102835.91;4936391;28;114343;-68
2021/03/03 00:43:58;;;;;;;31.45;17.40;;;;;;;9.35;52.60;102839.47;4940249;28;114572;-69
2021/03/03 00:46:25;;;;;;;34.95;17.58;;;;;;;9.31;52.62;102832.44;4938939;28;124331;-68
2021/03/03 00:48:53;;;;;;;30.60;17.13;;;;;;;9.27;52.21;102841.28;4946975;28;122738;-69
2021/03/03 00:51:21;;;;;;;31.08;17.63;;;;;;;9.22;52.45;102837.78;4951377;28;113525;-68
2021/03/03 00:53:49;;;;;;;38.15;18.63;;;;;;;9.18;52.59;102836.06;4937231;28;114610;-68
2021/03/03 00:56:16;;;;;;;30.92;16.92;;;;;;;9.14;52.54;102838.72;4947283;28;124458;-69
2021/03/03 00:58:42;;;;;;;30.85;17.42;;;;;;;9.10;52.59;102834.34;4949687;28;122790;-69
2021/03/03 01:01:09;;;;;;;32.35;17.15;;;;;;;9.07;52.43;102839.66;4948335;28;113554;-69
2021/03/03 01:03:39;;;;;;;31.90;17.02;;;;;;;9.03;52.44;102835.28;4947535;28;113544;-69
2021/03/03 01:06:18;;;;;;;32.08;17.20;;;;;;;9.00;52.51;102837.94;4934336;28;122817;-69
2021/03/03 01:08:46;;;;;;;33.75;18.23;;;;;;;8.96;52.75;102836.19;4937606;28;123216;-70
2021/03/03 01:11:14;;;;;;;32.42;17.05;;;;;;;8.94;52.67;102837.97;4936024;28;117812;-68
2021/03/03 01:13:43;;;;;;;31.83;17.23;;;;;;;8.91;52.74;102827.41;4933003;28;118408;-68
2021/03/03 01:16:15;;;;;;;30.20;15.70;;;;;;;8.89;52.94;102829.19;4931070;28;125027;-68
2021/03/03 01:18:45;;;;;;;29.63;15.93;;;;;;;8.87;52.90;102830.97;4955171;28;123224;-68
2021/03/03 01:21:12;;;;;;;28.05;16.30;;;;;;;8.84;53.08;102828.34;4931788;28;119486;-68
2021/03/03 01:23:39;;;;;;;32.95;17.40;;;;;;;8.82;53.00;102824.84;4935176;28;119632;-68
2021/03/03 01:26:06;;;;;;;33.83;17.63;;;;;;;8.80;52.99;102829.22;4932761;28;124979;-68
2021/03/03 01:28:32;;;;;;;32.67;17.27;;;;;;;8.75;53.30;102827.50;4933933;28;124105;-68
2021/03/03 01:30:59;;;;;;;42.67;17.48;;;;;;;8.74;53.17;102822.25;4943812;28;118839;-69
2021/03/03 01:33:27;;;;;;;34.08;17.30;;;;;;;8.70;53.17;102821.38;4932350;28;118853;-68
2021/03/03 01:35:54;;;;;;;31.75;17.30;;;;;;;8.67;53.21;102813.47;4933867;28;124002;-69
2021/03/03 01:38:21;;;;;;;29.60;16.50;;;;;;;8.64;53.23;102812.59;4950149;28;124386;-68
2021/03/03 01:40:49;;;;;;;29.80;16.70;;;;;;;8.60;53.48;102811.75;4937135;28;118011;-68
2021/03/03 01:43:16;;;;;;;34.00;16.95;;;;;;;8.57;53.67;102817.06;4936729;28;119064;-68
2021/03/03 01:45:44;;;;;;;34.95;17.90;;;;;;;8.54;53.42;102811.78;4931543;28;124082;-68
2021/03/03 01:48:11;;;;;;;33.65;18.38;;;;;;;8.51;53.72;102811.78;4933310;28;124111;-68
2021/03/03 01:50:39;;;;;;;33.28;18.15;;;;;;;8.49;53.90;102818.84;4931850;28;119197;-68
2021/03/03 01:53:07;;;;;;;33.63;18.05;;;;;;;8.47;53.95;102812.69;4929420;28;118501;-68
2021/03/03 01:55:34;;;;;;;31.55;17.48;;;;;;;8.45;54.02;102810.03;4949457;28;124269;-68
2021/03/03 01:58:02;;;;;;;30.13;18.00;;;;;;;8.44;54.14;102804.75;4931923;28;124028;-68
2021/03/03 02:00:29;;;;;;;37.70;17.83;;;;;;;8.42;53.81;102806.53;4932169;28;119909;-68
2021/03/03 02:02:56;;;;;;;34.88;17.85;;;;;;;8.41;54.04;102796.84;4932018;28;118256;-68
2021/03/03 02:05:24;;;;;;;36.95;18.10;;;;;;;8.38;54.10;102801.25;4933865;28;124088;-68
2021/03/03 02:08:12;;;;;;;39.25;18.15;;;;;;;8.36;53.92;102803.03;4931426;28;123629;-68
2021/03/03 02:10:57;;;;;;;34.30;17.50;;;;;;;8.34;54.04;102799.53;4929499;28;119988;-68
2021/03/03 02:13:31;;;;;;;34.10;16.50;;;;;;;8.34;54.20;102799.53;4930021;28;119211;-68
2021/03/03 02:16:01;;;;;;;33.35;17.25;;;;;;;8.33;53.95;102800.38;4935571;28;124783;-69
2021/03/03 02:18:30;;;;;;;31.27;17.65;;;;;;;8.33;54.17;102795.13;4938389;28;124848;-69
2021/03/03 02:21:25;;;;;;;33.33;18.15;;;;;;;8.30;54.14;102792.47;4935743;28;119334;-68
2021/03/03 02:24:03;;;;;;;35.28;17.73;;;;;;;8.30;54.38;102797.75;4931999;28;118275;-69
2021/03/03 02:26:34;;;;;;;33.90;16.85;;;;;;;8.28;54.50;102788.97;4932847;28;123394;-68
2021/03/03 02:29:02;;;;;;;34.85;17.33;;;;;;;8.26;54.43;102785.44;4948580;28;124119;-69
2021/03/03 02:31:42;;;;;;;32.45;17.60;;;;;;;8.27;54.40;102784.59;4938760;28;119620;-68
2021/03/03 02:34:12;;;;;;;34.10;17.45;;;;;;;8.26;54.17;102785.44;4936546;28;119002;-68
2021/03/03 02:36:41;;;;;;;29.52;14.90;;;;;;;8.25;53.80;102783.72;4935039;28;125680;-68
2021/03/03 02:39:10;;;;;;;27.35;15.10;;;;;;;8.22;54.08;102767.88;4952544;28;122458;-69
2021/03/03 02:41:37;;;;;;;28.58;15.50;;;;;;;8.17;54.09;102774.94;4939021;28;119120;-68
2021/03/03 02:44:05;;;;;;;31.33;16.80;;;;;;;8.12;54.07;102774.09;4938379;28;119227;-69
2021/03/03 02:46:33;;;;;;;29.80;16.20;;;;;;;8.08;54.09;102769.69;4939080;28;124986;-68
2021/03/03 02:49:04;;;;;;;33.95;16.75;;;;;;;8.07;54.17;102762.66;4947125;28;123378;-68
2021/03/03 02:51:30;;;;;;;31.67;17.27;;;;;;;8.04;54.23;102762.66;4924012;28;118913;-68
2021/03/03 02:53:57;;;;;;;35.95;17.42;;;;;;;8.02;54.10;102764.44;4948002;28;118196;-68
2021/03/03 02:56:25;;;;;;;29.98;16.42;;;;;;;7.98;54.29;102759.16;4945827;28;124794;-68
2021/03/03 02:58:52;;;;;;;32.08;16.10;;;;;;;7.94;54.51;102762.69;4950259;28;124164;-69
2021/03/03 03:01:21;;;;;;;33.45;17.13;;;;;;;7.91;54.71;102773.28;4947235;28;120489;-69
2021/03/03 03:04:01;;;;;;;31.45;16.95;;;;;;;7.90;54.58;102766.22;4937934;28;119991;-68
2021/03/03 03:06:37;;;;;;;35.70;17.05;;;;;;;7.88;54.52;102768.00;4957341;28;123818;-69
2021/03/03 03:09:07;;;;;;;32.72;17.35;;;;;;;7.87;54.71;102760.94;4946542;28;124264;-68
2021/03/03 03:11:37;;;;;;;34.10;17.45;;;;;;;7.87;54.88;102755.66;4946831;28;117640;-68
2021/03/03 03:14:07;;;;;;;32.47;16.27;;;;;;;7.85;54.84;102757.44;4938704;28;119483;-68
2021/03/03 03:16:36;;;;;;;31.63;16.50;;;;;;;7.84;54.72;102750.44;4942026;28;125756;-69
2021/03/03 03:19:07;;;;;;;35.00;18.33;;;;;;;7.82;55.09;102752.19;4936611;28;123040;-69
2021/03/03 03:21:37;;;;;;;33.88;17.23;;;;;;;7.82;54.94;102752.19;4936049;28;118199;-68
2021/03/03 03:24:06;;;;;;;33.17;17.15;;;;;;;7.81;54.81;102750.44;4937481;28;119611;-68
2021/03/03 03:26:35;;;;;;;27.60;16.27;;;;;;;7.80;54.86;102748.69;4940229;28;124336;-68
2021/03/03 03:29:02;;;;;;;34.55;17.20;;;;;;;7.80;55.05;102753.97;4944602;28;122787;-69
2021/03/03 03:31:29;;;;;;;32.72;16.52;;;;;;;7.80;55.23;102748.69;4935744;28;119469;-69
2021/03/03 03:33:56;;;;;;;36.00;17.25;;;;;;;7.78;54.91;102755.72;4947899;28;119849;-68
2021/03/03 03:36:23;;;;;;;33.38;18.15;;;;;;;7.79;55.32;102757.47;4938382;28;124319;-68
2021/03/03 03:38:50;;;;;;;38.60;17.52;;;;;;;7.79;55.29;102749.56;4943956;28;122868;-68
2021/03/03 03:41:18;;;;;;;32.25;17.45;;;;;;;7.80;55.19;102748.69;4937918;28;119483;-68
2021/03/03 03:43:45;;;;;;;34.47;18.42;;;;;;;7.81;55.51;102755.69;4949485;28;118309;-68
2021/03/03 03:46:13;;;;;;;32.55;17.48;;;;;;;7.80;55.51;102753.97;4939165;28;124201;-68
2021/03/03 03:48:40;;;;;;;30.98;17.65;;;;;;;7.80;55.65;102749.56;4939213;28;122390;-69
2021/03/03 03:51:07;;;;;;;33.08;17.30;;;;;;;7.80;55.18;102749.56;4937614;28;120228;-68
2021/03/03 03:53:34;;;;;;;33.92;17.52;;;;;;;7.79;55.57;102753.06;4952858;28;120787;-68
2021/03/03 03:56:05;;;;;;;31.38;17.05;;;;;;;7.80;55.38;102753.97;4949810;28;122923;-68
2021/03/03 03:58:32;;;;;;;38.33;20.30;;;;;;;7.79;55.69;102757.47;4930369;28;122860;-68
2021/03/03 04:00:59;;;;;;;39.28;18.33;;;;;;;7.78;55.78;102755.72;4931945;28;119656;-68
2021/03/03 04:03:25;;;;;;;35.85;18.42;;;;;;;7.81;55.81;102750.44;4933967;28;119120;-69
2021/03/03 04:05:52;;;;;;;39.45;17.88;;;;;;;7.82;56.04;102757.47;4938665;28;123068;-68
2021/03/03 04:08:19;;;;;;;33.58;18.00;;;;;;;7.85;55.46;102760.06;4948361;28;124217;-68
2021/03/03 04:10:45;;;;;;;35.25;17.42;;;;;;;7.86;55.80;102759.22;4933131;28;119729;-68
2021/03/03 04:13:12;;;;;;;35.20;19.50;;;;;;;7.86;55.47;102756.56;4945510;28;118378;-68
2021/03/03 04:15:39;;;;;;;35.53;18.52;;;;;;;7.86;55.39;102758.34;4948126;28;123521;-68
2021/03/03 04:18:06;;;;;;;30.90;17.95;;;;;;;7.86;55.45;102769.75;4933448;28;124078;-68
2021/03/03 04:20:33;;;;;;;27.92;16.77;;;;;;;7.85;55.84;102773.28;4934283;28;119470;-68
2021/03/03 04:22:59;;;;;;;33.55;18.55;;;;;;;7.85;55.53;102773.28;4931793;28;118786;-68
2021/03/03 04:25:26;;;;;;;33.33;17.98;;;;;;;7.85;55.48;102765.34;4947605;28;123417;-68
2021/03/03 04:27:53;;;;;;;37.45;17.52;;;;;;;7.85;55.56;102768.00;4934148;28;123980;-68
2021/03/03 04:30:21;;;;;;;35.05;17.40;;;;;;;7.84;55.47;102776.81;4932448;28;119581;-68
2021/03/03 04:33:06;;;;;;;31.58;17.75;;;;;;;7.80;55.13;102765.38;4930906;28;118072;-69
2021/03/03 04:35:33;;;;;;;34.22;17.48;;;;;;;7.81;55.30;102766.25;4933910;28;124368;-68
2021/03/03 04:38:00;;;;;;;33.67;18.92;;;;;;;7.79;55.62;102768.00;4934495;28;124242;-69
2021/03/03 04:40:27;;;;;;;33.55;18.67;;;;;;;7.79;55.66;102765.38;4933438;28;119440;-68
2021/03/03 04:42:53;;;;;;;29.45;15.68;;;;;;;7.78;55.50;102782.09;4948685;28;119905;-68
2021/03/03 04:45:20;;;;;;;27.33;14.68;;;;;;;7.75;55.33;102766.28;4932509;28;124289;-68
2021/03/03 04:47:46;;;;;;;25.00;14.18;;;;;;;7.71;55.13;102769.81;4930563;28;124760;-68
2021/03/03 04:50:13;;;;;;;25.88;13.38;;;;;;;7.69;55.00;102768.94;4933621;28;119446;-68
2021/03/03 04:52:40;;;;;;;26.00;14.93;;;;;;;7.64;54.95;102768.06;4935109;28;118929;-69
2021/03/03 04:55:07;;;;;;;29.23;15.45;;;;;;;7.60;55.34;102767.19;4937481;28;124142;-69
2021/03/03 04:57:34;;;;;;;34.35;16.15;;;;;;;7.57;55.35;102773.34;4936009;28;123701;-68
2021/03/03 05:00:01;;;;;;;32.13;15.27;;;;;;;7.55;55.16;102777.75;4948613;28;119445;-68
2021/03/03 05:02:27;;;;;;;33.30;16.58;;;;;;;7.53;55.20;102771.56;4939268;28;119433;-69
2021/03/03 05:04:54;;;;;;;36.58;16.27;;;;;;;7.52;55.33;102759.28;4934534;28;124115;-70
2021/03/03 05:07:21;;;;;;;31.60;17.23;;;;;;;7.52;55.36;102759.28;4940958;28;123842;-68
2021/03/03 05:09:47;;;;;;;30.80;16.92;;;;;;;7.47;55.56;102755.75;4950608;28;119270;-68
2021/03/03 05:12:14;;;;;;;33.03;16.33;;;;;;;7.44;55.33;102755.78;4936589;28;119334;-69
2021/03/03 05:14:41;;;;;;;36.50;16.27;;;;;;;7.40;55.62;102754.00;4933390;28;124108;-68
2021/03/03 05:17:07;;;;;;;33.40;16.60;;;;;;;7.36;55.69;102752.25;4936915;28;123663;-68
2021/03/03 05:19:34;;;;;;;31.55;15.68;;;;;;;7.34;55.52;102751.38;4946199;28;119110;-69
2021/03/03 05:22:01;;;;;;;38.13;16.55;;;;;;;7.31;55.90;102748.75;4937821;28;119992;-69
2021/03/03 05:24:27;;;;;;;26.02;15.27;;;;;;;7.29;55.94;102746.13;4935549;28;124407;-69
2021/03/03 05:26:54;;;;;;;29.20;15.77;;;;;;;7.30;55.42;102747.00;4954706;28;124093;-69
2021/03/03 05:29:21;;;;;;;29.90;16.48;;;;;;;7.29;55.80;102739.97;4935465;28;120046;-69
2021/03/03 05:31:47;;;;;;;29.90;16.20;;;;;;;7.29;55.89;102734.69;4932212;28;120207;-68
2021/03/03 05:34:14;;;;;;;32.50;15.95;;;;;;;7.30;55.36;102741.72;4946693;28;123518;-69
2021/03/03 05:36:41;;;;;;;39.38;15.57;;;;;;;7.29;55.77;102745.22;4932542;28;123255;-69
2021/03/03 05:39:07;;;;;;;32.58;16.15;;;;;;;7.28;55.75;102744.38;4955198;23;119717;-73
2021/03/03 05:41:34;;;;;;;29.90;15.70;;;;;;;7.29;55.53;102739.97;4919420;28;119021;-74
2021/03/03 05:44:01;;;;;;;32.13;15.75;;;;;;;7.28;55.82;102751.41;4918935;28;122850;-74
2021/03/03 05:46:28;;;;;;;35.42;15.32;;;;;;;7.25;55.84;102749.63;4928996;28;123340;-74
2021/03/03 05:49:00;;;;;;;29.60;15.95;;;;;;;7.24;55.62;102747.00;4918021;28;119359;-74
2021/03/03 05:51:28;;;;;;;29.85;16.90;;;;;;;7.22;55.65;102745.25;4916298;28;118390;-74
2021/03/03 05:53:55;;;;;;;31.30;17.05;;;;;;;7.22;56.00;102745.25;4907316;28;123306;-74
2021/03/03 05:56:22;;;;;;;35.63;17.00;;;;;;;7.21;56.20;102738.25;4921479;28;123901;-74
2021/03/03 05:58:49;;;;;;;33.50;17.38;;;;;;;7.22;56.14;102739.09;4928628;28;118179;-74
2021/03/03 06:01:17;;;;;;;33.28;17.33;;;;;;;7.22;56.16;102745.25;4922077;28;119075;-74
2021/03/03 06:03:44;;;;;;;34.35;16.65;;;;;;;7.24;56.05;102736.47;4916757;28;123822;-74
2021/03/03 06:06:12;;;;;;;36.33;17.55;;;;;;;7.24;56.17;102741.75;4920569;28;124987;-74
2021/03/03 06:08:38;;;;;;;35.45;17.58;;;;;;;7.25;56.11;102738.22;4915900;28;119011;-74
2021/03/03 06:11:05;;;;;;;34.55;17.42;;;;;;;7.26;56.30;102751.41;4912779;28;118194;-74
2021/03/03 06:13:33;;;;;;;35.55;17.30;;;;;;;7.26;56.02;102751.41;4910417;28;123973;-75
2021/03/03 06:15:59;;;;;;;38.78;18.35;;;;;;;7.27;56.10;102752.25;4923627;28;121950;-75
2021/03/03 06:18:26;;;;;;;37.78;19.30;;;;;;;7.27;56.44;102752.25;4912670;28;119287;-74
2021/03/03 06:20:54;;;;;;;37.17;19.85;;;;;;;7.28;56.30;102743.50;4917675;28;120193;-75
2021/03/03 06:23:29;;;;;;;39.10;19.58;;;;;;;7.29;56.56;102745.22;4921914;28;124161;-75
2021/03/03 06:25:55;;;;;;;37.67;18.55;;;;;;;7.29;56.24;102745.22;4929396;28;123630;-74
2021/03/03 06:28:33;;;;;;;37.63;19.35;;;;;;;7.27;56.33;102747.00;4920926;28;118904;-74
2021/03/03 06:31:21;;;;;;;36.20;18.75;;;;;;;7.28;56.55;102748.75;4901199;28;118135;-75
2021/03/03 06:33:48;;;;;;;38.35;18.02;;;;;;;7.28;56.43;102754.03;4912729;28;123530;-75
2021/03/03 06:36:28;;;;;;;36.72;18.70;;;;;;;7.27;56.41;102757.53;4924461;28;123846;-75
2021/03/03 06:38:55;;;;;;;32.10;18.40;;;;;;;7.28;56.44;102754.91;4936023;28;118997;-75
2021/03/03 06:41:37;;;;;;;38.63;18.08;;;;;;;7.28;56.38;102770.72;4927555;28;118123;-74
2021/03/03 06:44:04;;;;;;;33.35;17.90;;;;;;;7.29;56.15;102756.69;4919699;28;124138;-75
2021/03/03 06:46:31;;;;;;;39.85;18.48;;;;;;;7.29;56.06;102771.59;4922300;28;123798;-75
2021/03/03 06:49:01;;;;;;;33.83;18.15;;;;;;;7.31;56.27;102775.09;4917035;28;121174;-73
2021/03/03 06:51:31;;;;;;;34.70;18.55;;;;;;;7.32;56.32;102767.19;4915638;28;119008;-74
2021/03/03 06:54:01;;;;;;;39.10;18.70;;;;;;;7.33;56.50;102778.66;4935929;28;123454;-74
2021/03/03 06:56:42;;;;;;;36.55;18.73;;;;;;;7.35;56.66;102776.88;4920405;28;124296;-74
2021/03/03 06:59:30;;;;;;;36.95;18.35;;;;;;;7.36;56.75;102768.06;4914481;28;119326;-74
2021/03/03 07:01:58;;;;;;;39.58;19.00;;;;;;;7.39;56.81;102773.34;4922380;28;119289;-75
2021/03/03 07:04:36;;;;;;;35.38;18.55;;;;;;;7.42;56.72;102775.97;4920079;28;125502;-75
2021/03/03 07:07:19;;;;;;;39.22;19.05;;;;;;;7.44;56.48;102776.88;4913458;28;124536;-75
2021/03/03 07:09:53;;;;;;;38.63;18.80;;;;;;;7.46;56.69;102780.38;4928367;28;122832;-75
2021/03/03 07:12:26;;;;;;;34.27;17.17;;;;;;;7.49;56.69;102790.91;4927350;28;119104;-75
2021/03/03 07:15:10;;;;;;;36.05;16.63;;;;;;;7.51;56.83;102794.41;4929351;28;123343;-75
2021/03/03 07:17:40;;;;;;;32.20;16.48;;;;;;;7.55;56.85;102797.94;4919230;28;123154;-78
2021/03/03 07:20:08;;;;;;;31.85;17.63;;;;;;;7.58;57.31;102796.19;4933597;28;118191;-75
2021/03/03 07:22:37;;;;;;;33.88;17.13;;;;;;;7.62;57.25;102796.19;4927819;28;118362;-75
2021/03/03 07:25:06;;;;;;;37.38;17.52;;;;;;;7.68;57.15;102798.81;4924936;28;123802;-75
2021/03/03 07:27:34;;;;;;;39.83;18.00;;;;;;;7.71;57.16;102801.44;4932137;28;123733;-75
2021/03/03 07:30:07;;;;;;;32.78;18.10;;;;;;;7.75;57.28;102795.28;4932188;28;119675;-75
2021/03/03 07:32:34;;;;;;;39.92;18.48;;;;;;;7.81;57.17;102803.19;4919328;28;118957;-75
2021/03/03 07:35:03;;;;;;;33.63;18.23;;;;;;;7.85;57.54;102804.06;4913416;28;122874;-75
2021/03/03 07:37:41;;;;;;;35.22;19.70;;;;;;;7.90;57.02;102804.94;4915710;28;123709;-75
2021/03/03 07:40:13;;;;;;;36.38;20.25;;;;;;;7.94;57.18;102799.63;4913867;28;119417;-75
2021/03/03 07:42:42;;;;;;;39.95;21.02;;;;;;;8.01;57.47;102800.50;4921932;28;118772;-77
2021/03/03 07:45:13;;;;;;;40.75;21.98;;;;;;;8.08;57.69;102809.25;4917017;28;98285;-77
2021/03/03 07:47:42;;;;;;;40.65;20.63;;;;;;;8.14;57.52;102801.34;4919579;28;123644;-78
2021/03/03 07:50:13;;;;;;;43.03;22.73;;;;;;;8.22;57.36;102799.56;4920221;28;118613;-77
2021/03/03 07:52:42;;;;;;;45.03;25.02;;;;;;;8.30;57.82;102807.44;4918884;28;117798;-77
2021/03/03 07:55:10;;;;;;;45.00;24.33;;;;;;;8.41;58.12;102804.78;4926613;28;123079;-77
2021/03/03 07:57:41;;;;;;;49.55;25.85;;;;;;;8.51;58.04;102811.78;4944839;28;124750;-77
2021/03/03 08:00:11;;;;;;;50.78;27.05;;;;;;;8.64;58.08;102809.97;4929240;28;120216;-77
2021/03/03 08:02:45;;;;;;;50.08;26.58;;;;;;;8.79;58.15;102795.78;4933675;28;121481;-77
2021/03/03 08:05:25;;;;;;;51.57;26.80;;;;;;;8.92;57.98;102797.47;4927230;28;123715;-77
2021/03/03 08:08:10;;;;;;;50.05;28.23;;;;;;;9.07;58.33;102792.06;4915509;28;123004;-77
2021/03/03 08:10:41;;;;;;;47.63;26.88;;;;;;;9.20;58.04;102792.00;4929232;28;119242;-77
2021/03/03 08:13:17;;;;;;;48.78;27.77;;;;;;;9.31;58.09;102787.50;4920177;28;119015;-77
2021/03/03 08:15:48;;;;;;;51.03;27.25;;;;;;;9.43;58.10;102784.72;4929327;28;122861;-77
2021/03/03 08:18:23;;;;;;;49.28;26.65;;;;;;;9.56;58.09;102796.06;4943985;28;124717;-77
2021/03/03 08:20:59;;;;;;;45.75;26.75;;;;;;;9.68;58.07;102784.50;4923471;28;118954;-77
2021/03/03 08:23:32;;;;;;;50.45;26.60;;;;;;;9.80;57.94;102789.66;4930174;28;119738;-77
2021/03/03 08:26:15;;;;;;;45.08;26.98;;;;;;;9.91;57.97;102793.09;4930848;28;124068;-77
2021/03/03 08:28:43;;;;;;;48.25;26.77;;;;;;;10.05;57.69;102784.09;4929250;28;123822;-77
2021/03/03 08:31:15;;;;;;;50.78;27.40;;;;;;;10.17;57.52;102783.97;4931883;28;118969;-77
2021/03/03 08:33:48;;;;;;;46.13;27.33;;;;;;;10.29;57.90;102783.81;4928559;28;118718;-77
2021/03/03 08:36:21;;;;;;;45.38;26.25;;;;;;;10.42;57.80;102783.69;4929382;28;125914;-77
2021/03/03 08:39:09;;;;;;;52.10;27.13;;;;;;;10.55;57.45;102779.97;4928295;28;124747;-77
2021/03/03 08:41:37;;;;;;;47.45;28.13;;;;;;;10.68;57.38;102781.56;4922576;28;119293;-77
2021/03/03 08:44:04;;;;;;;46.42;27.95;;;;;;;10.81;57.42;102784.00;4928377;28;118763;-77
2021/03/03 08:46:30;;;;;;;48.92;28.58;;;;;;;10.91;57.37;102780.34;4931124;28;124857;-77
2021/03/03 08:48:58;;;;;;;56.20;28.63;;;;;;;11.01;57.14;102779.28;4930516;28;124001;-78
2021/03/03 08:51:31;;;;;;;49.90;28.92;;;;;;;11.12;57.19;102778.25;4929480;28;119991;-77
2021/03/03 08:53:59;;;;;;;53.33;30.08;;;;;;;11.23;57.25;102784.25;4929214;28;120622;-77
2021/03/03 08:56:39;;;;;;;49.85;28.85;;;;;;;11.34;57.35;102790.25;4913780;28;123470;-77
2021/03/03 08:59:13;;;;;;;53.78;31.05;;;;;;;11.46;57.09;102784.72;4931715;28;123877;-77
2021/03/03 09:02:01;;;;;;;55.42;33.03;;;;;;;11.57;56.80;102781.03;4930023;28;118372;-77
2021/03/03 09:04:42;;;;;;;56.75;31.73;;;;;;;11.67;56.94;102778.16;4928684;28;118585;-77
2021/03/03 09:07:18;;;;;;;53.15;31.58;;;;;;;11.80;56.68;102781.47;4929931;28;123088;-77
2021/03/03 09:09:46;;;;;;;;;;;;;;;11.91;56.58;102772.47;4932080;28;123164;-77
2021/03/03 09:12:15;;;;;;;58.60;32.00;;;;;;;12.04;56.58;102768.66;4930236;28;118507;-78
2021/03/03 09:14:43;;;;;;;55.83;32.83;;;;;;;12.15;56.59;102771.97;4931251;28;119763;-77
2021/03/03 09:17:20;;;;;;;57.28;33.05;;;;;;;12.26;56.42;102769.06;4928302;28;122626;-78
2021/03/03 09:19:47;;;;;;;58.60;32.95;;;;;;;12.38;56.26;102762.63;4930108;28;123332;-77
2021/03/03 09:22:18;;;;;;;57.15;34.13;;;;;;;12.49;56.21;102765.94;4930467;28;119610;-78
2021/03/03 09:24:50;;;;;;;56.70;34.35;;;;;;;12.59;55.68;102767.47;4928587;28;118595;-77
2021/03/03 09:27:17;;;;;;;55.03;34.22;;;;;;;12.73;56.09;102768.94;4929040;28;123624;-77
2021/03/03 09:29:43;;;;;;;61.17;34.35;;;;;;;12.83;55.88;102765.16;4930834;28;123900;-77
2021/03/03 09:32:19;;;;;;;60.50;34.83;;;;;;;12.95;55.82;102764.84;4931001;28;120197;-77
2021/03/03 09:34:56;;;;;;;53.30;35.88;;;;;;;13.08;55.79;102770.75;4928733;28;118030;-77
2021/03/03 09:37:24;;;;;;;58.80;37.00;;;;;;;13.22;55.65;102773.06;4926805;28;124195;-77
2021/03/03 09:39:56;;;;;;;64.07;38.15;;;;;;;13.32;55.38;102769.31;4927423;28;124682;-78
2021/03/03 09:42:23;;;;;;;62.88;36.75;;;;;;;13.48;55.27;102771.56;4926590;28;119557;-77
2021/03/03 09:44:56;;;;;;;64.28;37.35;;;;;;;13.58;54.90;102765.97;4928413;28;118849;-79
2021/03/03 09:47:28;;;;;;;60.17;36.95;;;;;;;13.72;54.73;102762.91;4928072;28;125106;-77
2021/03/03 09:50:01;;;;;;;67.95;38.80;;;;;;;13.83;54.95;102760.81;4927016;28;124426;-77
2021/03/03 09:52:40;;;;;;;70.70;40.38;;;;;;;13.95;54.72;102753.41;4929981;28;119709;-77
2021/03/03 09:55:10;;;;;;;61.55;38.67;;;;;;;14.08;54.41;102754.78;4927074;28;119088;-77
2021/03/03 09:57:37;;;;;;;63.50;38.95;;;;;;;14.18;54.20;102744.72;4929109;28;124096;-78
2021/03/03 10:00:07;;;;;;;60.63;39.60;;;;;;;14.26;54.17;102744.50;4928240;28;123577;-77
2021/03/03 10:02:34;;;;;;;64.30;40.55;;;;;;;14.35;53.92;102746.91;4930216;28;118690;-78
2021/03/03 10:05:02;;;;;;;64.93;38.83;;;;;;;14.43;53.81;102739.56;4926382;28;118949;-79
2021/03/03 10:07:29;;;;;;;67.53;39.28;;;;;;;14.53;53.68;102743.66;4911635;28;122970;-77
2021/03/03 10:09:58;;;;;;;65.05;41.20;;;;;;;14.63;53.59;102746.94;4927930;28;123839;-77
2021/03/03 10:12:36;;;;;;;68.55;40.10;;;;;;;14.76;53.59;102753.63;4911843;28;118958;-77
2021/03/03 10:15:15;;;;;;;65.65;40.78;;;;;;;14.89;53.42;102743.44;4927163;28;119421;-77
2021/03/03 10:17:43;;;;;;;71.00;42.03;;;;;;;15.03;53.63;102747.44;4915636;28;123493;-77
2021/03/03 10:20:34;;;;;;;66.47;41.92;;;;;;;15.15;53.19;102745.25;4928404;28;123974;-78
2021/03/03 10:23:22;;;;;;;64.07;43.22;;;;;;;15.31;52.97;102750.97;4917864;28;118887;-78
2021/03/03 10:25:59;;;;;;;70.97;44.25;;;;;;;15.44;52.87;102734.50;4927410;28;118950;-78
2021/03/03 10:28:28;;;;;;;72.30;44.83;;;;;;;15.57;52.68;102746.47;4928108;28;123822;-77
2021/03/03 10:30:56;;;;;;;73.15;43.67;;;;;;;15.68;52.32;102748.78;4928851;28;123929;-78
2021/03/03 10:33:34;;;;;;;74.85;44.40;;;;;;;15.76;52.34;102742.28;4926344;28;120448;-78
2021/03/03 10:36:06;;;;;;;69.72;44.58;;;;;;;15.87;51.79;102749.88;4931255;28;120043;-77
2021/03/03 10:38:34;;;;;;;85.78;47.25;;;;;;;15.94;51.48;102746.06;4930689;28;124213;-78
2021/03/03 10:41:03;;;;;;;72.88;46.03;;;;;;;16.03;51.33;102750.19;4931305;28;123348;-78
2021/03/03 10:43:31;;;;;;;72.40;47.50;;;;;;;16.10;51.49;102749.00;4932244;28;118908;-80
2021/03/03 10:46:08;;;;;;;75.80;47.05;;;;;;;16.17;50.82;102748.81;4932280;28;119738;-78
2021/03/03 10:48:38;;;;;;;79.82;47.83;;;;;;;16.23;50.98;102743.22;4914812;28;123228;-78
2021/03/03 10:51:10;;;;;;;75.90;47.00;;;;;;;16.32;51.12;102742.84;4930981;28;122657;-78
2021/03/03 10:53:50;;;;;;;74.00;47.38;;;;;;;16.42;51.04;102746.03;4930621;28;118323;-78
2021/03/03 10:56:27;;;;;;;71.18;45.58;;;;;;;16.50;50.42;102747.50;4930087;28;119136;-79
2021/03/03 10:58:56;;;;;;;73.13;46.42;;;;;;;16.59;50.07;102748.91;4931084;28;124060;-78
2021/03/03 11:01:24;;;;;;;75.03;46.55;;;;;;;16.66;50.39;102741.53;4932018;28;123679;-79
2021/03/03 11:03:57;;;;;;;73.15;47.15;;;;;;;16.75;50.26;102738.47;4930939;28;120106;-78
2021/03/03 11:06:28;;;;;;;74.97;45.17;;;;;;;16.83;49.71;102736.38;4931131;28;118294;-78
2021/03/03 11:08:56;;;;;;;76.07;47.45;;;;;;;16.90;49.56;102732.53;4915379;28;123481;-78
2021/03/03 11:11:23;;;;;;;73.97;47.33;;;;;;;16.97;49.28;102726.91;4933125;28;124323;-78
2021/03/03 11:13:50;;;;;;;73.93;47.03;;;;;;;17.01;49.36;102736.53;4932134;28;119324;-78
2021/03/03 11:16:17;;;;;;;78.75;47.90;;;;;;;17.05;49.37;102735.50;4932909;28;118460;-78
2021/03/03 11:18:43;;;;;;;74.60;48.75;;;;;;;17.12;49.46;102739.63;4933563;28;124331;-79
2021/03/03 11:21:10;;;;;;;73.63;47.40;;;;;;;17.20;49.34;102734.84;4925555;28;123076;-78